AirNav   Textron
 
 1201 users online  

9I0 Havana Regional Airport
Havana, Illinois, USA


FAA INFORMATION EFFECTIVE 07 DECEMBER 2017

Location

FAA Identifier: 9I0
Lat/Long: 40-13-21.6950N / 090-01-22.0150W
40-13.361583N / 090-01.366917W
40.2226931 / -90.0227819
(estimated)
Elevation: 499 ft. / 152.1 m (surveyed)
Variation: 01E (1985)
From city: 5 miles SE of HAVANA, IL
Time zone: UTC -6 (UTC -5 during Daylight Saving Time)
Zip code: 62644

Airport Operations

Airport use: Open to the public
Activation date: 03/1985
Control tower: no
ARTCC: KANSAS CITY CENTER
FSS: KANKAKEE FLIGHT SERVICE STATION
NOTAMs facility: IKK (NOTAM-D service available)
Attendance: IREG
Pattern altitude: 1499 ft. MSL
Wind indicator: lighted
Segmented circle: no
Beacon: white-green (lighted land airport)
Operates sunset to sunrise.

Airport Communications

CTAF: 122.9

Nearby radio navigation aids

VOR radial/distance  VOR name  Freq  Var
SPIr326/27.9SPINNER VORTAC112.7001W
IJXr018/28.5JACKSONVILLE VOR/DME108.6002E
PIAr197/29.4PEORIA VORTAC115.2004E

 
NDB name  Hdg/Dist  Freq  Var  ID
MACOMB125/30.325101EJZY .--- --.. -.--
ABRAHAM277/31.632900EAAA .- .- .-

Airport Services

Fuel available: 100LL
SELF SVC FUEL AVBL 24 HRS.
Parking: tiedowns

Runway Information

Runway 9/27

Dimensions: 2235 x 100 ft. / 681 x 30 m
Surface: turf, in good condition
Runway edge lights: medium intensity
RUNWAY 9  RUNWAY 27
Latitude: 40-13.360833N40-13.362333N
Longitude: 090-01.607000W090-01.126833W
Elevation: 485.5 ft.488.2 ft.
Traffic pattern: leftleft
Touchdown point: yes, no lightsyes, no lights

Airport Ownership and Management from official FAA records

Ownership: Publicly-owned
Owner: HAVANA REGIONAL PORT DISTRICT
17787 SHERWOOD FOREST RD
HAVANA, IL 62644
Phone (217) 725-0628
Manager: BOB MARTIN
18206 QUIVER BEACH RD
HAVANA, IL 62644-6895
Phone 217-871-6251

Airport Operational Statistics

Aircraft based on the field: 14
Single engine airplanes: 12
Ultralights: 2
    
Aircraft operations: avg 27/week *
71% local general aviation
29% transient general aviation
* for 12-month period ending 30 April 2017

Additional Remarks

9 FT CROPS E OF RY 27 THLD - SEASONAL.

Instrument Procedures

There are no published instrument procedures at 9I0.

Some nearby airports with instrument procedures:

KCTK - Ingersoll Airport (21 nm N)
C15 - Pekin Municipal Airport (22 nm NE)
KSPI - Abraham Lincoln Capital Airport (28 nm SE)
KIJX - Jacksonville Municipal Airport (29 nm S)
KPIA - General Downing - Peoria International Airport (30 nm NE)
 
Loc | Ops | Rwys | IFR | FBO | Links
Com | Nav | Svcs | Stats | Notes


 
Area around 9I0 (Havana Regional Airport)
 
Road maps at: MapQuest Bing Google
 
Aerial photo
WARNING: Photo may not be current or correct
Aerial photo of 9I0 (Havana Regional Airport)
Taken mid June 2008

Do you have a better or more recent aerial photo of Havana Regional Airport that you would like to share? If so, please send us your photo.

 
Sectional chart

 
Airport distance calculator
Flying to Havana Regional Airport? Find the distance to fly.

From to 9I0

Sunrise and sunset
Times for 15-Dec-2017
 Local
(UTC-6)
 Zulu
(UTC)
Morning civil twilight06:4612:46
Sunrise07:1713:17
Sunset16:3422:34
Evening civil twilight17:0523:05

Current date and time
Zulu (UTC)  15-Dec-2017 14:38:08
Local (UTC-6)  15-Dec-2017 08:38:08
 
METAR
KSPI 
27nm SE 
151423Z 31006KT 10SM SCT027 BKN034 OVC040 00/M04 A3006 RMK AO2 T00001044
KIJX 
29nm S 
151415Z AUTO 27007KT 10SM OVC025 00/M05 A3007 RMK AO2 T10051048
KPIA 
31nm NE 
151354Z 28008KT 10SM OVC046 M02/M06 A3004 RMK AO2 SLP180 T10221056
KAAA 
32nm E 
151415Z AUTO 28004KT 10SM SCT025 OVC043 M01/M05 A3005 RMK AO2 T10101046
KMQB 
34nm NW 
151415Z AUTO 28008KT 10SM CLR M03/M05 A3008 RMK AO2 T10291047
KI63 
39nm W 
151415Z AUTO 30011KT 10SM OVC042 M01/M04 A3006 RMK AO2 T10101045
KGBG 
47nm NW 
151410Z AUTO 27007KT 10SM OVC042 M03/M04 A3004 RMK AO2 T10261040
KPPQ 
50nm SW 
151415Z AUTO 27006KT 10SM OVC029 00/M03 A3008 RMK AO2 T00041035
TAF
KSPI 
27nm SE 
151136Z 1512/1612 24006KT P6SM OVC045 FM151400 27007KT P6SM OVC050 FM151600 28009G20KT P6SM BKN050 FM152300 25010KT P6SM SCT140 FM160000 22007KT P6SM SCT200
KPIA 
31nm NE 
151136Z 1512/1612 26006KT P6SM OVC025 FM151600 27007G20KT P6SM BKN030 FM152000 25009G20KT P6SM BKN070 FM160000 22006KT P6SM BKN090
NOTAMs
Click for the latest NOTAMs
NOTAMs are issued by the DoD/FAA and will open in a separate window not controlled by AirNav.

 

 
 

FBO, Fuel Providers, and Aircraft Ground Support

  
 Business Name 
 
 Contact 
 
 Services / Description 
 
Fuel Prices
 
Comments
  
Havana Regional Airport 309-696-4836
no information available

If you are affiliated with Havana Regional Airport and would like to show here your services, contact info, web link, logo, and more, click here
100LL
SS $4.20 
 Updated 22-Oct-2017
 
   1 read write
SS=Self service
Update Fuel Prices
 

Would you like to see your business listed on this page?

 If your business provides an interesting product or service to pilots, flight crews, aircraft, or users of the Havana Regional Airport, you should consider listing it here.  To start the listing process, click on the button below
 
Add a business
 

Other Pages about Havana Regional Airport

www.havanaregional.com
 
Update a link
 
Copyright © AirNav, LLC. All rights reserved. Privacy Policy  Contact